sensor_id;sensor_type;location;lat;lon;timestamp;temperature;humidity
75190;HTU21D;64951;44.752;37.676;2023-04-10T11:28:43;16.16;64.34
75190;HTU21D;64951;44.752;37.676;2023-04-10T11:29:45;16.17;64.46
75190;HTU21D;64951;44.752;37.676;2023-04-10T11:30:46;16.18;64.56
75190;HTU21D;64951;44.752;37.676;2023-04-10T11:31:57;16.20;64.91
75190;HTU21D;64951;44.752;37.676;2023-04-10T11:32:59;16.18;64.81
75190;HTU21D;64951;44.752;37.676;2023-04-10T11:34:01;16.16;65.01
75190;HTU21D;64951;44.752;37.676;2023-04-10T11:35:03;16.15;65.41
75190;HTU21D;64951;44.752;37.676;2023-04-10T11:36:05;16.13;65.73
75190;HTU21D;64951;44.752;37.676;2023-04-10T11:37:07;16.11;66.14
75190;HTU21D;64951;44.752;37.676;2023-04-10T11:38:09;16.05;66.56
75190;HTU21D;64951;44.752;37.676;2023-04-10T11:39:12;16.03;66.91
75190;HTU21D;64951;44.752;37.676;2023-04-10T11:40:13;16.00;67.22
75190;HTU21D;64951;44.752;37.676;2023-04-10T11:41:14;15.95;67.39
75190;HTU21D;64951;44.752;37.676;2023-04-10T11:42:19;15.95;67.62
75190;HTU21D;64951;44.752;37.676;2023-04-10T11:43:20;15.92;67.71
75190;HTU21D;64951;44.752;37.676;2023-04-10T11:45:28;15.86;67.43
75190;HTU21D;64951;44.752;37.676;2023-04-10T11:46:44;15.87;67.46
75190;HTU21D;64951;44.752;37.676;2023-04-10T11:47:51;15.90;67.65
75190;HTU21D;64951;44.752;37.676;2023-04-10T11:48:57;15.92;67.67
75190;HTU21D;64951;44.752;37.676;2023-04-10T11:49:58;15.89;67.55
75190;HTU21D;64951;44.752;37.676;2023-04-10T11:51:10;15.96;67.54
75190;HTU21D;64951;44.752;37.676;2023-04-10T11:52:11;15.93;67.39
75190;HTU21D;64951;44.752;37.676;2023-04-10T11:53:19;15.99;67.32
75190;HTU21D;64951;44.752;37.676;2023-04-10T11:54:23;15.97;67.17
75190;HTU21D;64951;44.752;37.676;2023-04-10T11:55:39;15.99;66.18
75190;HTU21D;64951;44.752;37.676;2023-04-10T11:56:45;15.95;65.70
75190;HTU21D;69198;44.694;37.790;2023-04-10T11:57:54;15.92;65.95
75190;HTU21D;69198;44.694;37.790;2023-04-10T11:58:55;15.93;66.07
75190;HTU21D;69198;44.694;37.790;2023-04-10T11:59:56;15.95;65.95
75190;HTU21D;69198;44.694;37.790;2023-04-10T12:01:03;15.96;66.07
75190;HTU21D;69198;44.694;37.790;2023-04-10T12:02:11;15.99;66.18
75190;HTU21D;69198;44.694;37.790;2023-04-10T12:03:17;16.01;66.12
75190;HTU21D;69198;44.694;37.790;2023-04-10T12:04:20;16.04;65.90
75190;HTU21D;69198;44.694;37.790;2023-04-10T12:05:22;16.06;65.69
75190;HTU21D;69198;44.694;37.790;2023-04-10T12:06:23;16.05;65.60
75190;HTU21D;69198;44.694;37.790;2023-04-10T12:07:25;16.06;65.44
75190;HTU21D;69198;44.694;37.790;2023-04-10T12:08:33;16.10;65.46
75190;HTU21D;69198;44.694;37.790;2023-04-10T12:09:34;16.12;65.50
75190;HTU21D;69198;44.694;37.790;2023-04-10T12:10:45;16.17;64.72
75190;HTU21D;69198;44.694;37.790;2023-04-10T12:12:00;16.17;64.21
75190;HTU21D;69198;44.694;37.790;2023-04-10T12:13:02;16.13;64.19
75190;HTU21D;69198;44.694;37.790;2023-04-10T12:14:03;16.10;64.30
75190;HTU21D;69198;44.694;37.790;2023-04-10T12:15:25;16.12;64.43
75190;HTU21D;69198;44.694;37.790;2023-04-10T12:16:26;16.02;64.40
75190;HTU21D;69198;44.694;37.790;2023-04-10T12:17:27;15.98;64.50
75190;HTU21D;69198;44.694;37.790;2023-04-10T12:18:28;15.90;64.65
75190;HTU21D;69198;44.694;37.790;2023-04-10T12:19:30;15.88;64.69
75190;HTU21D;69198;44.694;37.790;2023-04-10T12:20:32;15.88;64.22
75190;HTU21D;69198;44.694;37.790;2023-04-10T12:21:37;15.89;64.20
75190;HTU21D;69198;44.694;37.790;2023-04-10T12:22:39;15.86;64.19
75190;HTU21D;69198;44.694;37.790;2023-04-10T12:23:43;15.86;63.67
75190;HTU21D;69198;44.694;37.790;2023-04-10T12:24:47;15.87;63.76
75190;HTU21D;69198;44.694;37.790;2023-04-10T12:25:49;15.86;64.02
75190;HTU21D;69198;44.694;37.790;2023-04-10T12:26:51;15.89;63.58
75190;HTU21D;69198;44.694;37.790;2023-04-10T12:27:51;15.88;63.60
75190;HTU21D;69198;44.694;37.790;2023-04-10T12:28:54;15.88;63.75
75190;HTU21D;69198;44.694;37.790;2023-04-10T12:29:57;15.89;64.10
75190;HTU21D;69198;44.694;37.790;2023-04-10T12:30:58;15.89;63.79
75190;HTU21D;69198;44.694;37.790;2023-04-10T12:32:07;15.92;63.70
75190;HTU21D;69198;44.694;37.790;2023-04-10T12:33:08;15.93;64.20
75190;HTU21D;69198;44.694;37.790;2023-04-10T12:34:17;15.92;64.49
75190;HTU21D;69198;44.694;37.790;2023-04-10T12:35:18;15.87;64.80
75190;HTU21D;69198;44.694;37.790;2023-04-10T12:36:24;15.88;64.96
75190;HTU21D;69198;44.694;37.790;2023-04-10T12:37:50;15.89;64.80
75190;HTU21D;69198;44.694;37.790;2023-04-10T12:38:51;15.83;64.88
75190;HTU21D;69198;44.694;37.790;2023-04-10T12:40:04;15.88;64.18
75190;HTU21D;69198;44.694;37.790;2023-04-10T12:41:06;15.85;64.72
75190;HTU21D;69198;44.694;37.790;2023-04-10T12:42:14;15.78;65.43
75190;HTU21D;69198;44.694;37.790;2023-04-10T12:43:30;15.78;65.98
75190;HTU21D;69198;44.694;37.790;2023-04-10T12:44:32;15.74;65.91
75190;HTU21D;69198;44.694;37.790;2023-04-10T12:45:45;15.81;66.11
75190;HTU21D;69198;44.694;37.790;2023-04-10T12:46:46;15.77;66.05
75190;HTU21D;69198;44.694;37.790;2023-04-10T12:47:48;15.76;66.20
75190;HTU21D;69198;44.694;37.790;2023-04-10T12:48:54;15.78;66.29
75190;HTU21D;69198;44.694;37.790;2023-04-10T12:50:10;15.85;66.30
75190;HTU21D;69198;44.694;37.790;2023-04-10T12:51:11;15.84;66.24
75190;HTU21D;69198;44.694;37.790;2023-04-10T12:52:21;15.87;65.96
75190;HTU21D;69198;44.694;37.790;2023-04-10T12:53:23;15.87;65.93
75190;HTU21D;69198;44.694;37.790;2023-04-10T12:55:33;15.91;65.89
75190;HTU21D;69198;44.694;37.790;2023-04-10T12:56:44;15.95;65.75
75190;HTU21D;69198;44.694;37.790;2023-04-10T12:57:47;15.93;65.94
75190;HTU21D;69198;44.694;37.790;2023-04-10T12:58:48;15.93;66.07
75190;HTU21D;69198;44.694;37.790;2023-04-10T13:00:06;15.93;66.21
75190;HTU21D;69198;44.694;37.790;2023-04-10T13:01:09;15.91;66.45
75190;HTU21D;69198;44.694;37.790;2023-04-10T13:02:10;15.92;66.55
75190;HTU21D;69198;44.694;37.790;2023-04-10T13:03:38;15.92;66.78
75190;HTU21D;69198;44.694;37.790;2023-04-10T13:04:39;15.91;66.81
75190;HTU21D;69198;44.694;37.790;2023-04-10T13:05:43;15.92;66.82
75190;HTU21D;69198;44.694;37.790;2023-04-10T13:06:45;15.92;66.94
75190;HTU21D;69198;44.694;37.790;2023-04-10T13:07:47;15.90;67.12
75190;HTU21D;69198;44.694;37.790;2023-04-10T13:08:52;15.90;66.98
75190;HTU21D;69198;44.694;37.790;2023-04-10T13:09:54;15.89;67.20
75190;HTU21D;69198;44.694;37.790;2023-04-10T13:10:55;15.88;67.20
75190;HTU21D;69198;44.694;37.790;2023-04-10T13:11:57;15.87;67.23
75190;HTU21D;69198;44.694;37.790;2023-04-10T13:12:58;15.90;67.18
75190;HTU21D;69198;44.694;37.790;2023-04-10T13:13:59;15.90;67.23
75190;HTU21D;69198;44.694;37.790;2023-04-10T13:15:01;15.90;67.33
75190;HTU21D;69198;44.694;37.790;2023-04-10T13:16:02;15.89;67.43
75190;HTU21D;69198;44.694;37.790;2023-04-10T13:17:03;15.90;67.38
75190;HTU21D;69198;44.694;37.790;2023-04-10T13:18:04;15.91;67.50
75190;HTU21D;69198;44.694;37.790;2023-04-10T13:19:06;15.92;67.67
75190;HTU21D;69198;44.694;37.790;2023-04-10T13:20:08;15.85;67.79
75190;HTU21D;69198;44.694;37.790;2023-04-10T13:21:10;15.86;67.89
75190;HTU21D;69198;44.694;37.790;2023-04-10T13:22:11;15.88;67.62
75190;HTU21D;69198;44.694;37.790;2023-04-10T13:23:12;15.92;67.59
75190;HTU21D;69198;44.694;37.790;2023-04-10T13:24:13;15.90;67.64
75190;HTU21D;69198;44.694;37.790;2023-04-10T13:25:14;15.95;67.48
75190;HTU21D;69198;44.694;37.790;2023-04-10T13:26:15;15.93;67.63
75190;HTU21D;69198;44.694;37.790;2023-04-10T13:27:16;15.93;67.81
75190;HTU21D;69198;44.694;37.790;2023-04-10T13:28:17;15.92;67.83
75190;HTU21D;69198;44.694;37.790;2023-04-10T13:29:21;15.93;67.62
75190;HTU21D;69198;44.694;37.790;2023-04-10T13:30:22;15.98;67.28
75190;HTU21D;69198;44.694;37.790;2023-04-10T13:31:23;16.02;67.27
75190;HTU21D;69198;44.694;37.790;2023-04-10T13:32:24;16.06;67.07
75190;HTU21D;69198;44.694;37.790;2023-04-10T13:33:25;16.05;67.14
75190;HTU21D;69198;44.694;37.790;2023-04-10T13:34:26;16.10;67.01
75190;HTU21D;69198;44.694;37.790;2023-04-10T13:35:27;16.10;67.14
75190;HTU21D;69198;44.694;37.790;2023-04-10T13:36:28;16.10;67.05
75190;HTU21D;69198;44.694;37.790;2023-04-10T13:37:31;16.08;67.20
75190;HTU21D;69198;44.694;37.790;2023-04-10T13:38:32;16.08;67.17
75190;HTU21D;69198;44.694;37.790;2023-04-10T13:39:33;16.06;67.46
75190;HTU21D;69198;44.694;37.790;2023-04-10T13:40:35;16.01;67.60
75190;HTU21D;69198;44.694;37.790;2023-04-10T13:41:36;15.99;67.69
75190;HTU21D;69198;44.694;37.790;2023-04-10T13:42:37;15.97;67.75
75190;HTU21D;69198;44.694;37.790;2023-04-10T13:43:38;15.96;67.79
75190;HTU21D;69198;44.694;37.790;2023-04-10T13:44:39;15.96;67.90
75190;HTU21D;69198;44.694;37.790;2023-04-10T13:45:40;15.97;67.84
75190;HTU21D;69198;44.694;37.790;2023-04-10T13:46:41;15.95;68.03
75190;HTU21D;69198;44.694;37.790;2023-04-10T13:47:42;15.96;68.06
75190;HTU21D;69198;44.694;37.790;2023-04-10T13:48:43;15.99;68.10
75190;HTU21D;69198;44.694;37.790;2023-04-10T13:49:44;15.96;68.26
75190;HTU21D;69198;44.694;37.790;2023-04-10T13:50:45;15.93;68.36
75190;HTU21D;69198;44.694;37.790;2023-04-10T13:51:46;15.93;68.25
75190;HTU21D;69198;44.694;37.790;2023-04-10T13:52:47;15.97;68.22
75190;HTU21D;69198;44.694;37.790;2023-04-10T13:53:49;15.97;68.17
75190;HTU21D;69198;44.694;37.790;2023-04-10T13:54:50;16.00;68.26
75190;HTU21D;69198;44.694;37.790;2023-04-10T13:55:51;15.99;68.20
75190;HTU21D;69198;44.694;37.790;2023-04-10T13:56:52;15.98;68.23
75190;HTU21D;69198;44.694;37.790;2023-04-10T13:57:54;15.93;68.28
75190;HTU21D;69198;44.694;37.790;2023-04-10T13:58:55;15.92;68.52
75190;HTU21D;69198;44.694;37.790;2023-04-10T13:59:56;15.92;68.47
75190;HTU21D;69198;44.694;37.790;2023-04-10T14:00:57;15.89;68.64
75190;HTU21D;69198;44.694;37.790;2023-04-10T14:01:59;15.89;68.83
75190;HTU21D;69198;44.694;37.790;2023-04-10T14:03:00;15.90;68.87
75190;HTU21D;69198;44.694;37.790;2023-04-10T14:04:01;15.87;69.01
75190;HTU21D;69198;44.694;37.790;2023-04-10T14:05:03;15.86;69.13
75190;HTU21D;69198;44.694;37.790;2023-04-10T14:06:04;15.88;69.10
75190;HTU21D;69198;44.694;37.790;2023-04-10T14:07:05;15.90;69.10
75190;HTU21D;69198;44.694;37.790;2023-04-10T14:08:06;15.90;69.08
75190;HTU21D;69198;44.694;37.790;2023-04-10T14:09:11;15.89;69.29
75190;HTU21D;69198;44.694;37.790;2023-04-10T14:10:12;15.89;69.39
75190;HTU21D;69198;44.694;37.790;2023-04-10T14:11:13;15.86;69.41
75190;HTU21D;69198;44.694;37.790;2023-04-10T14:12:14;15.88;69.36
75190;HTU21D;69198;44.694;37.790;2023-04-10T14:13:19;15.89;69.36
75190;HTU21D;69198;44.694;37.790;2023-04-10T14:14:20;15.88;69.46
75190;HTU21D;69198;44.694;37.790;2023-04-10T14:15:24;15.85;69.61
75190;HTU21D;69198;44.694;37.790;2023-04-10T14:16:25;15.85;69.46
75190;HTU21D;69198;44.694;37.790;2023-04-10T14:17:26;15.85;69.55
75190;HTU21D;69198;44.694;37.790;2023-04-10T14:18:28;15.88;69.33
75190;HTU21D;69198;44.694;37.790;2023-04-10T14:19:29;15.92;69.13
75190;HTU21D;69198;44.694;37.790;2023-04-10T14:20:30;15.95;69.04
75190;HTU21D;69198;44.694;37.790;2023-04-10T14:21:31;15.98;68.91
75190;HTU21D;69198;44.694;37.790;2023-04-10T14:22:32;16.00;68.89
75190;HTU21D;69198;44.694;37.790;2023-04-10T14:23:33;16.01;68.84
75190;HTU21D;69198;44.694;37.790;2023-04-10T14:24:34;16.02;68.84
75190;HTU21D;69198;44.694;37.790;2023-04-10T14:25:35;16.03;68.86
75190;HTU21D;69198;44.694;37.790;2023-04-10T14:26:36;16.03;68.83
75190;HTU21D;69198;44.694;37.790;2023-04-10T14:27:37;16.03;68.85
75190;HTU21D;69198;44.694;37.790;2023-04-10T14:28:38;16.02;68.94
75190;HTU21D;69198;44.694;37.790;2023-04-10T14:29:40;16.03;68.99
75190;HTU21D;69198;44.694;37.790;2023-04-10T14:30:42;16.02;68.99
75190;HTU21D;69198;44.694;37.790;2023-04-10T14:31:43;16.01;69.06
75190;HTU21D;69198;44.694;37.790;2023-04-10T14:32:44;16.03;69.07
75190;HTU21D;69198;44.694;37.790;2023-04-10T14:33:45;16.03;69.06
75190;HTU21D;69198;44.694;37.790;2023-04-10T14:34:46;16.06;68.71
75190;HTU21D;69198;44.694;37.790;2023-04-10T14:35:47;16.11;68.57
75190;HTU21D;69198;44.694;37.790;2023-04-10T14:36:48;16.13;68.72
75190;HTU21D;69198;44.694;37.790;2023-04-10T14:37:49;16.12;68.66
75190;HTU21D;69198;44.694;37.790;2023-04-10T14:38:50;16.13;68.62
75190;HTU21D;69198;44.694;37.790;2023-04-10T14:39:51;16.13;68.62
75190;HTU21D;69198;44.694;37.790;2023-04-10T14:40:52;16.15;68.66
75190;HTU21D;69198;44.694;37.790;2023-04-10T14:41:53;16.13;68.75
75190;HTU21D;69198;44.694;37.790;2023-04-10T14:42:54;16.10;68.94
75190;HTU21D;69198;44.694;37.790;2023-04-10T14:43:55;16.08;69.04
75190;HTU21D;69198;44.694;37.790;2023-04-10T14:44:56;16.07;69.00
75190;HTU21D;69198;44.694;37.790;2023-04-10T14:46:00;16.08;69.00
75190;HTU21D;69198;44.694;37.790;2023-04-10T14:47:01;16.11;69.02
75190;HTU21D;69198;44.694;37.790;2023-04-10T14:48:05;16.06;69.23
75190;HTU21D;69198;44.694;37.790;2023-04-10T14:49:06;16.04;69.33
75190;HTU21D;69198;44.694;37.790;2023-04-10T14:50:07;16.03;69.40
75190;HTU21D;69198;44.694;37.790;2023-04-10T14:51:08;16.03;69.39
75190;HTU21D;69198;44.694;37.790;2023-04-10T14:52:12;16.02;69.45
75190;HTU21D;69198;44.694;37.790;2023-04-10T14:53:13;16.00;69.65
75190;HTU21D;69198;44.694;37.790;2023-04-10T14:54:14;15.97;70.05
75190;HTU21D;69198;44.694;37.790;2023-04-10T14:55:16;15.99;70.16
75190;HTU21D;69198;44.694;37.790;2023-04-10T14:56:17;15.96;70.30
75190;HTU21D;69198;44.694;37.790;2023-04-10T14:57:18;15.90;70.48
75190;HTU21D;69198;44.694;37.790;2023-04-10T14:58:19;15.84;70.84
75190;HTU21D;69198;44.694;37.790;2023-04-10T14:59:20;15.80;70.95
75190;HTU21D;69198;44.694;37.790;2023-04-10T15:00:21;15.82;71.08
75190;HTU21D;69198;44.694;37.790;2023-04-10T15:01:24;15.81;71.22
75190;HTU21D;69198;44.694;37.790;2023-04-10T15:02:26;15.82;71.21
75190;HTU21D;69198;44.694;37.790;2023-04-10T15:03:27;15.83;71.25
75190;HTU21D;69198;44.694;37.790;2023-04-10T15:04:28;15.80;71.39
75190;HTU21D;69198;44.694;37.790;2023-04-10T15:05:30;15.76;71.58
75190;HTU21D;69198;44.694;37.790;2023-04-10T15:06:33;15.80;71.67
75190;HTU21D;69198;44.694;37.790;2023-04-10T15:07:34;15.81;71.61
75190;HTU21D;69198;44.694;37.790;2023-04-10T15:08:36;15.84;71.35
75190;HTU21D;69198;44.694;37.790;2023-04-10T15:09:37;15.87;71.21
75190;HTU21D;69198;44.694;37.790;2023-04-10T15:10:38;15.92;71.14
75190;HTU21D;69198;44.694;37.790;2023-04-10T15:11:39;15.91;71.16
75190;HTU21D;69198;44.694;37.790;2023-04-10T15:12:40;15.90;71.34
75190;HTU21D;69198;44.694;37.790;2023-04-10T15:13:42;15.96;71.27
75190;HTU21D;69198;44.694;37.790;2023-04-10T15:14:43;15.98;71.22
75190;HTU21D;69198;44.694;37.790;2023-04-10T15:15:44;15.98;71.21
75190;HTU21D;69198;44.694;37.790;2023-04-10T15:16:45;15.98;71.13
75190;HTU21D;69198;44.694;37.790;2023-04-10T15:17:47;15.99;71.08
75190;HTU21D;69198;44.694;37.790;2023-04-10T15:18:48;16.01;71.03
75190;HTU21D;69198;44.694;37.790;2023-04-10T15:19:49;16.03;70.93
75190;HTU21D;69198;44.694;37.790;2023-04-10T15:20:50;16.05;71.00
75190;HTU21D;69198;44.694;37.790;2023-04-10T15:21:53;16.05;71.03
75190;HTU21D;69198;44.694;37.790;2023-04-10T15:22:54;16.07;70.97
75190;HTU21D;69198;44.694;37.790;2023-04-10T15:23:55;16.06;70.98
75190;HTU21D;69198;44.694;37.790;2023-04-10T15:24:56;16.11;70.81
75190;HTU21D;69198;44.694;37.790;2023-04-10T15:26:00;16.10;70.85
75190;HTU21D;69198;44.694;37.790;2023-04-10T15:27:03;16.12;70.81
75190;HTU21D;69198;44.694;37.790;2023-04-10T15:28:04;16.15;70.73
75190;HTU21D;69198;44.694;37.790;2023-04-10T15:29:07;16.14;70.75
75190;HTU21D;69198;44.694;37.790;2023-04-10T15:30:08;16.16;70.63
75190;HTU21D;69198;44.694;37.790;2023-04-10T15:31:10;16.18;70.58
75190;HTU21D;69198;44.694;37.790;2023-04-10T15:32:11;16.21;70.54
75190;HTU21D;69198;44.694;37.790;2023-04-10T15:33:12;16.24;70.41
75190;HTU21D;69198;44.694;37.790;2023-04-10T15:34:13;16.26;70.32
75190;HTU21D;69198;44.694;37.790;2023-04-10T15:35:14;16.29;70.16
75190;HTU21D;69198;44.694;37.790;2023-04-10T15:36:17;16.30;70.17
75190;HTU21D;69198;44.694;37.790;2023-04-10T15:37:30;16.32;70.17
75190;HTU21D;69198;44.694;37.790;2023-04-10T15:38:43;16.32;70.02
75190;HTU21D;69198;44.694;37.790;2023-04-10T15:39:46;16.33;69.87
75190;HTU21D;69198;44.694;37.790;2023-04-10T15:40:47;16.31;70.03
75190;HTU21D;69198;44.694;37.790;2023-04-10T15:41:48;16.31;69.95
75190;HTU21D;69198;44.694;37.790;2023-04-10T15:42:49;16.34;69.84
75190;HTU21D;69198;44.694;37.790;2023-04-10T15:43:50;16.37;69.88
75190;HTU21D;69198;44.694;37.790;2023-04-10T15:44:51;16.34;69.91
75190;HTU21D;69198;44.694;37.790;2023-04-10T15:45:52;16.31;70.03
75190;HTU21D;69198;44.694;37.790;2023-04-10T15:46:54;16.30;70.04
75190;HTU21D;69198;44.694;37.790;2023-04-10T15:47:54;16.30;70.07
75190;HTU21D;69198;44.694;37.790;2023-04-10T15:48:55;16.29;70.00
75190;HTU21D;69198;44.694;37.790;2023-04-10T15:49:57;16.30;70.00
75190;HTU21D;69198;44.694;37.790;2023-04-10T15:51:01;16.33;69.84
75190;HTU21D;69198;44.694;37.790;2023-04-10T15:52:04;16.31;69.92
75190;HTU21D;69198;44.694;37.790;2023-04-10T15:53:05;16.33;69.90
75190;HTU21D;69198;44.694;37.790;2023-04-10T15:54:06;16.29;69.97
75190;HTU21D;69198;44.694;37.790;2023-04-10T15:55:08;16.29;69.93
75190;HTU21D;69198;44.694;37.790;2023-04-10T15:56:09;16.28;69.88
75190;HTU21D;69198;44.694;37.790;2023-04-10T15:57:10;16.29;69.81
75190;HTU21D;69198;44.694;37.790;2023-04-10T15:58:11;16.29;69.56
75190;HTU21D;69198;44.694;37.790;2023-04-10T15:59:12;16.33;69.37
75190;HTU21D;69198;44.694;37.790;2023-04-10T16:00:14;16.37;69.33
75190;HTU21D;69198;44.694;37.790;2023-04-10T16:01:15;16.40;69.26
75190;HTU21D;69198;44.694;37.790;2023-04-10T16:02:16;16.40;69.19
75190;HTU21D;69198;44.694;37.790;2023-04-10T16:03:17;16.42;68.98
75190;HTU21D;69198;44.694;37.790;2023-04-10T16:04:18;16.44;68.84
75190;HTU21D;69198;44.694;37.790;2023-04-10T16:05:19;16.48;68.74
75190;HTU21D;69198;44.694;37.790;2023-04-10T16:06:20;16.48;68.93
75190;HTU21D;69198;44.694;37.790;2023-04-10T16:07:25;16.47;68.88
75190;HTU21D;69198;44.694;37.790;2023-04-10T16:08:26;16.46;68.86
75190;HTU21D;69198;44.694;37.790;2023-04-10T16:09:27;16.46;68.83
75190;HTU21D;69198;44.694;37.790;2023-04-10T16:10:28;16.45;68.81
75190;HTU21D;69198;44.694;37.790;2023-04-10T16:11:30;16.45;68.63
75190;HTU21D;69198;44.694;37.790;2023-04-10T16:12:31;16.45;68.68
75190;HTU21D;69198;44.694;37.790;2023-04-10T16:13:31;16.43;68.66
75190;HTU21D;69198;44.694;37.790;2023-04-10T16:14:33;16.43;68.69
75190;HTU21D;69198;44.694;37.790;2023-04-10T16:15:36;16.44;68.80
75190;HTU21D;69198;44.694;37.790;2023-04-10T16:16:37;16.44;68.78
75190;HTU21D;69198;44.694;37.790;2023-04-10T16:17:38;16.44;68.83
75190;HTU21D;69198;44.694;37.790;2023-04-10T16:18:39;16.47;68.63
75190;HTU21D;69198;44.694;37.790;2023-04-10T16:19:40;16.50;68.56
75190;HTU21D;69198;44.694;37.790;2023-04-10T16:20:41;16.49;68.39
75190;HTU21D;69198;44.694;37.790;2023-04-10T16:21:42;16.51;68.04
75190;HTU21D;69198;44.694;37.790;2023-04-10T16:22:43;16.56;67.84
75190;HTU21D;69198;44.694;37.790;2023-04-10T16:23:44;16.57;67.78
75190;HTU21D;69198;44.694;37.790;2023-04-10T16:24:45;16.61;67.72
75190;HTU21D;69198;44.694;37.790;2023-04-10T16:25:46;16.63;67.19
75190;HTU21D;69198;44.694;37.790;2023-04-10T16:26:47;16.69;67.00
75190;HTU21D;69198;44.694;37.790;2023-04-10T16:27:49;16.73;66.90
75190;HTU21D;69198;44.694;37.790;2023-04-10T16:28:50;16.75;66.91
75190;HTU21D;69198;44.694;37.790;2023-04-10T16:29:51;16.74;66.97
75190;HTU21D;69198;44.694;37.790;2023-04-10T16:30:52;16.75;66.78
75190;HTU21D;69198;44.694;37.790;2023-04-10T16:31:53;16.82;66.20
75190;HTU21D;69198;44.694;37.790;2023-04-10T16:32:54;16.84;66.18
75190;HTU21D;69198;44.694;37.790;2023-04-10T16:33:55;16.84;66.07
75190;HTU21D;69198;44.694;37.790;2023-04-10T16:34:56;16.82;66.11
75190;HTU21D;69198;44.694;37.790;2023-04-10T16:35:57;16.81;65.95
75190;HTU21D;69198;44.694;37.790;2023-04-10T16:36:58;16.81;66.12
75190;HTU21D;69198;44.694;37.790;2023-04-10T16:37:59;16.79;66.17
75190;HTU21D;69198;44.694;37.790;2023-04-10T16:39:00;16.82;65.89
75190;HTU21D;69198;44.694;37.790;2023-04-10T16:40:02;16.85;65.83
75190;HTU21D;69198;44.694;37.790;2023-04-10T16:41:04;16.87;65.73
75190;HTU21D;69198;44.694;37.790;2023-04-10T16:42:05;16.88;65.72
75190;HTU21D;69198;44.694;37.790;2023-04-10T16:43:06;16.90;65.60
75190;HTU21D;69198;44.694;37.790;2023-04-10T16:44:08;16.92;65.46
75190;HTU21D;69198;44.694;37.790;2023-04-10T16:45:09;16.91;65.43
75190;HTU21D;69198;44.694;37.790;2023-04-10T16:46:10;16.96;65.08
75190;HTU21D;69198;44.694;37.790;2023-04-10T16:47:11;17.02;64.90
75190;HTU21D;69198;44.694;37.790;2023-04-10T16:48:12;17.02;64.81
75190;HTU21D;69198;44.694;37.790;2023-04-10T16:49:14;17.03;64.69
75190;HTU21D;69198;44.694;37.790;2023-04-10T16:50:15;17.04;64.80
75190;HTU21D;69198;44.694;37.790;2023-04-10T16:51:16;17.05;64.63
75190;HTU21D;69198;44.694;37.790;2023-04-10T16:52:18;17.05;64.72
75190;HTU21D;69198;44.694;37.790;2023-04-10T16:53:20;17.08;64.40
75190;HTU21D;69198;44.694;37.790;2023-04-10T16:54:21;17.06;64.60
75190;HTU21D;69198;44.694;37.790;2023-04-10T16:55:22;17.06;64.55
75190;HTU21D;69198;44.694;37.790;2023-04-10T16:56:23;17.06;64.51
75190;HTU21D;69198;44.694;37.790;2023-04-10T16:57:25;17.08;64.47
75190;HTU21D;69198;44.694;37.790;2023-04-10T16:58:26;17.08;64.47
75190;HTU21D;69198;44.694;37.790;2023-04-10T16:59:27;17.10;64.07
75190;HTU21D;69198;44.694;37.790;2023-04-10T17:00:28;17.14;64.14
75190;HTU21D;69198;44.694;37.790;2023-04-10T17:01:29;17.15;64.12
75190;HTU21D;69198;44.694;37.790;2023-04-10T17:02:31;17.15;64.10
75190;HTU21D;69198;44.694;37.790;2023-04-10T17:03:32;17.14;64.05
75190;HTU21D;69198;44.694;37.790;2023-04-10T17:04:33;17.15;63.88
75190;HTU21D;69198;44.694;37.790;2023-04-10T17:05:34;17.18;63.79
75190;HTU21D;69198;44.694;37.790;2023-04-10T17:06:38;17.20;63.50
75190;HTU21D;69198;44.694;37.790;2023-04-10T17:07:39;17.20;63.53
75190;HTU21D;69198;44.694;37.790;2023-04-10T17:08:40;17.18;63.75
75190;HTU21D;69198;44.694;37.790;2023-04-10T17:09:41;17.19;63.67
75190;HTU21D;69198;44.694;37.790;2023-04-10T17:10:42;17.16;63.89
75190;HTU21D;69198;44.694;37.790;2023-04-10T17:11:43;17.16;63.74
75190;HTU21D;69198;44.694;37.790;2023-04-10T17:12:44;17.19;63.40
75190;HTU21D;69198;44.694;37.790;2023-04-10T17:13:45;17.22;63.41
75190;HTU21D;69198;44.694;37.790;2023-04-10T17:14:46;17.16;63.82
75190;HTU21D;69198;44.694;37.790;2023-04-10T17:15:47;17.16;63.70
75190;HTU21D;69198;44.694;37.790;2023-04-10T17:16:49;17.16;63.72
75190;HTU21D;69198;44.694;37.790;2023-04-10T17:17:49;17.13;63.98
75190;HTU21D;69198;44.694;37.790;2023-04-10T17:18:51;17.11;64.05
75190;HTU21D;69198;44.694;37.790;2023-04-10T17:19:52;17.10;64.01
75190;HTU21D;69198;44.694;37.790;2023-04-10T17:20:53;17.10;63.94
75190;HTU21D;69198;44.694;37.790;2023-04-10T17:21:53;17.10;63.97
75190;HTU21D;69198;44.694;37.790;2023-04-10T17:22:55;17.11;63.94
75190;HTU21D;69198;44.694;37.790;2023-04-10T17:23:56;17.13;63.76
75190;HTU21D;69198;44.694;37.790;2023-04-10T17:24:57;17.10;63.85
75190;HTU21D;69198;44.694;37.790;2023-04-10T17:26:00;17.10;63.88
75190;HTU21D;69198;44.694;37.790;2023-04-10T17:27:04;17.11;63.92
75190;HTU21D;69198;44.694;37.790;2023-04-10T17:28:05;17.13;63.74
75190;HTU21D;69198;44.694;37.790;2023-04-10T17:29:06;17.13;63.76
75190;HTU21D;69198;44.694;37.790;2023-04-10T17:30:11;17.11;63.82
75190;HTU21D;69198;44.694;37.790;2023-04-10T17:31:13;17.11;63.84
75190;HTU21D;69198;44.694;37.790;2023-04-10T17:32:14;17.11;63.63
75190;HTU21D;69198;44.694;37.790;2023-04-10T17:33:15;17.11;63.57
75190;HTU21D;69198;44.694;37.790;2023-04-10T17:34:16;17.13;63.42
75190;HTU21D;69198;44.694;37.790;2023-04-10T17:35:16;17.14;63.53
75190;HTU21D;69198;44.694;37.790;2023-04-10T17:36:20;17.16;63.44
75190;HTU21D;69198;44.694;37.790;2023-04-10T17:37:21;17.15;63.50
75190;HTU21D;69198;44.694;37.790;2023-04-10T17:38:22;17.18;63.26
75190;HTU21D;69198;44.694;37.790;2023-04-10T17:39:23;17.17;63.34
75190;HTU21D;69198;44.694;37.790;2023-04-10T17:40:25;17.16;63.40
75190;HTU21D;69198;44.694;37.790;2023-04-10T17:41:26;17.13;63.66
75190;HTU21D;69198;44.694;37.790;2023-04-10T17:42:27;17.10;63.58
75190;HTU21D;69198;44.694;37.790;2023-04-10T17:43:28;17.10;63.59
75190;HTU21D;69198;44.694;37.790;2023-04-10T17:44:30;17.08;63.58
75190;HTU21D;69198;44.694;37.790;2023-04-10T17:45:31;17.10;63.54
75190;HTU21D;69198;44.694;37.790;2023-04-10T17:46:32;17.10;63.56
75190;HTU21D;69198;44.694;37.790;2023-04-10T17:47:34;17.08;63.64
75190;HTU21D;69198;44.694;37.790;2023-04-10T17:48:35;17.08;63.47
75190;HTU21D;69198;44.694;37.790;2023-04-10T17:49:38;17.10;63.38
75190;HTU21D;69198;44.694;37.790;2023-04-10T17:50:40;17.13;63.28
75190;HTU21D;69198;44.694;37.790;2023-04-10T17:51:40;17.18;62.98
75190;HTU21D;69198;44.694;37.790;2023-04-10T17:52:41;17.18;63.11